Time;durP1;ratioP1;P1;durP2;ratioP2;P2;SDS_P1;SDS_P2;PMS_P1;PMS_P2;Temp;Humidity;BMP_temperature;BMP_pressure;BME280_temperature;BME280_humidity;BME280_pressure;Samples;Min_cycle;Max_cycle;Signal;HPM_P1;HPM_P2
2022/01/07 00:00:19;;;;;;;31.23;19.20;;;;;;;4.22;73.19;101100.50;5061745;28;20527;-65
2022/01/07 00:02:50;;;;;;;36.40;19.13;;;;;;;4.53;73.02;101099.16;5061191;28;20457;-65
2022/01/07 00:05:15;;;;;;;29.93;19.53;;;;;;;4.78;72.48;101097.56;5060830;28;20423;-65
2022/01/07 00:07:41;;;;;;;32.10;18.43;;;;;;;4.65;71.98;101097.06;5060791;28;20412;-65
2022/01/07 00:10:09;;;;;;;32.27;19.63;;;;;;;4.02;73.70;101084.22;5061020;28;20188;-65
2022/01/07 00:12:35;;;;;;;32.33;19.20;;;;;;;4.66;72.74;101080.75;5059552;28;20495;-64
2022/01/07 00:15:00;;;;;;;33.43;18.00;;;;;;;4.47;72.22;101083.44;5060567;28;20753;-65
2022/01/07 00:17:26;;;;;;;27.13;18.50;;;;;;;4.87;71.11;101074.66;5061728;28;20165;-65
2022/01/07 00:19:51;;;;;;;24.23;16.90;;;;;;;4.71;70.85;101084.41;5060566;28;20527;-65
2022/01/07 00:22:16;;;;;;;33.90;17.40;;;;;;;4.77;71.26;101077.72;5060245;28;20166;-64
2022/01/07 00:24:42;;;;;;;29.70;18.27;;;;;;;4.96;70.49;101071.56;5060959;28;20166;-65
2022/01/07 00:27:07;;;;;;;29.10;17.37;;;;;;;3.98;73.41;101075.44;5060327;28;20197;-64
2022/01/07 00:29:33;;;;;;;36.10;19.90;;;;;;;4.77;71.58;101067.38;5060534;28;20574;-65
2022/01/07 00:31:58;;;;;;;28.93;18.53;;;;;;;4.52;72.08;101066.44;5060834;28;20247;-66
2022/01/07 00:34:23;;;;;;;28.10;17.20;;;;;;;4.49;71.46;101058.53;5060076;28;20222;-64
2022/01/07 00:36:49;;;;;;;28.40;17.97;;;;;;;4.59;70.96;101064.94;5060152;28;20181;-65
2022/01/07 00:39:14;;;;;;;26.20;16.73;;;;;;;4.57;71.28;101059.72;5060646;28;20173;-65
2022/01/07 00:41:39;;;;;;;30.23;16.90;;;;;;;4.83;70.70;101049.53;5059995;28;20173;-64
2022/01/07 00:44:05;;;;;;;25.83;17.97;;;;;;;4.65;70.12;101049.72;5060110;28;20161;-64
2022/01/07 00:46:30;;;;;;;29.07;17.00;;;;;;;4.66;70.29;101044.59;5060552;28;20465;-65
2022/01/07 00:48:56;;;;;;;27.90;16.80;;;;;;;4.23;71.18;101048.06;5059918;28;20248;-65
2022/01/07 00:51:21;;;;;;;24.93;17.30;;;;;;;4.41;71.24;101047.03;5059938;28;20244;-65
2022/01/07 00:53:47;;;;;;;24.80;16.97;;;;;;;4.35;70.87;101043.38;5059993;28;20217;-64
2022/01/07 00:56:13;;;;;;;28.53;17.57;;;;;;;4.44;70.64;101036.81;5059206;28;20382;-64
2022/01/07 00:58:38;;;;;;;24.10;17.10;;;;;;;4.69;69.79;101029.22;5059827;28;20169;-64
2022/01/07 01:01:03;;;;;;;29.80;16.90;;;;;;;4.70;70.19;101032.69;5059649;28;20458;-64
2022/01/07 01:03:29;;;;;;;27.80;16.33;;;;;;;4.65;70.55;101029.03;5059750;28;20173;-65
2022/01/07 01:05:57;;;;;;;27.50;16.80;;;;;;;4.82;70.13;101027.13;5060308;28;20170;-64
2022/01/07 01:08:23;;;;;;;27.17;15.87;;;;;;;4.23;71.02;101014.50;5059824;28;20257;-64
2022/01/07 01:10:48;;;;;;;23.77;15.87;;;;;;;4.65;69.75;101014.41;5059634;28;20968;-64
2022/01/07 01:13:13;;;;;;;26.63;16.60;;;;;;;4.36;69.36;101009.03;5059858;28;20180;-64
2022/01/07 01:15:39;;;;;;;27.90;16.87;;;;;;;4.45;69.69;101010.19;5059789;28;20170;-65
2022/01/07 01:18:04;;;;;;;26.70;15.33;;;;;;;4.62;69.45;101006.56;5060021;28;20427;-64
2022/01/07 01:20:31;;;;;;;24.07;16.50;;;;;;;4.41;69.06;101006.63;5060884;28;20239;-66
2022/01/07 01:22:56;;;;;;;32.37;17.07;;;;;;;4.47;69.33;101001.69;5060679;28;20179;-64
2022/01/07 01:25:22;;;;;;;25.07;15.60;;;;;;;4.41;69.41;101005.75;5060569;28;20503;-67
2022/01/07 01:27:47;;;;;;;27.40;18.00;;;;;;;4.44;70.52;100998.09;5059809;28;20193;-65
2022/01/07 01:30:17;;;;;;;26.40;17.60;;;;;;;4.11;70.19;100990.81;5059346;28;20562;-64
2022/01/07 01:32:44;;;;;;;27.47;17.30;;;;;;;4.60;68.16;100974.66;5058937;28;20213;-65
2022/01/07 01:35:10;;;;;;;28.23;15.17;;;;;;;4.50;68.76;100986.31;5059725;28;20412;-65
2022/01/07 01:37:35;;;;;;;24.83;14.33;;;;;;;4.29;68.27;100981.22;5059274;28;20422;-65
2022/01/07 01:40:01;;;;;;;21.30;15.23;;;;;;;4.40;69.23;100976.47;5058887;28;20416;-63
2022/01/07 01:42:26;;;;;;;19.27;12.93;;;;;;;3.77;69.34;100968.81;5059337;28;20157;-65
2022/01/07 01:44:52;;;;;;;27.87;15.53;;;;;;;4.29;68.71;100960.56;5058773;28;20223;-64
2022/01/07 01:47:17;;;;;;;26.97;13.23;;;;;;;4.63;69.17;100960.97;5058792;28;20181;-64
2022/01/07 01:49:42;;;;;;;25.90;14.03;;;;;;;4.37;69.04;100951.41;5057838;28;20181;-64
2022/01/07 01:52:08;;;;;;;25.97;15.07;;;;;;;4.35;68.91;100942.72;5058664;28;20201;-65
2022/01/07 01:54:33;;;;;;;20.60;13.50;;;;;;;4.37;68.51;100954.00;5058481;28;20213;-66
2022/01/07 01:56:59;;;;;;;24.33;13.57;;;;;;;4.66;67.70;100930.09;5058916;28;20197;-65
2022/01/07 01:59:26;;;;;;;21.93;13.33;;;;;;;4.74;69.86;100931.25;5058666;28;20207;-64
2022/01/07 02:01:52;;;;;;;21.00;13.17;;;;;;;4.61;68.40;100926.47;5058663;28;20298;-64
2022/01/07 02:04:17;;;;;;;22.23;12.60;;;;;;;4.13;69.24;100922.09;5058927;28;20442;-63
2022/01/07 02:06:42;;;;;;;17.90;12.20;;;;;;;4.43;68.24;100916.34;5058408;28;20427;-66
2022/01/07 02:09:08;;;;;;;19.43;13.73;;;;;;;4.51;68.65;100917.50;5058431;28;20567;-65
2022/01/07 02:11:34;;;;;;;20.10;12.67;;;;;;;4.51;67.93;100920.09;5059009;28;20603;-64
2022/01/07 02:13:59;;;;;;;24.10;13.53;;;;;;;4.34;68.40;100917.75;5058132;28;20162;-64
2022/01/07 02:16:26;;;;;;;20.90;11.93;;;;;;;4.69;67.70;100907.81;5058273;28;20408;-64
2022/01/07 02:18:51;;;;;;;18.27;11.60;;;;;;;4.72;67.59;100913.13;5058780;28;20157;-64
2022/01/07 02:21:17;;;;;;;18.10;11.70;;;;;;;4.39;68.37;100905.00;5058428;28;20824;-64
2022/01/07 02:23:42;;;;;;;26.83;12.93;;;;;;;4.97;67.37;100895.03;5058141;28;20543;-65
2022/01/07 02:26:08;;;;;;;16.70;10.60;;;;;;;4.53;67.91;100900.34;5057888;28;20193;-65
2022/01/07 02:28:34;;;;;;;23.83;13.00;;;;;;;4.84;67.39;100893.72;5058060;28;20166;-65
2022/01/07 02:30:59;;;;;;;17.37;10.73;;;;;;;4.49;68.48;100895.91;5058303;28;20472;-65
2022/01/07 02:33:25;;;;;;;15.30;11.87;;;;;;;4.63;66.58;100888.69;5057815;28;20404;-65
2022/01/07 02:35:50;;;;;;;16.30;11.10;;;;;;;4.51;66.96;100889.09;5058230;28;20166;-65
2022/01/07 02:38:16;;;;;;;19.33;11.90;;;;;;;4.11;67.14;100893.63;5058174;28;20176;-65
2022/01/07 02:40:42;;;;;;;16.20;9.80;;;;;;;4.30;67.55;100879.75;5058336;28;20162;-64
2022/01/07 02:43:07;;;;;;;17.33;10.77;;;;;;;4.61;66.66;100873.09;5057766;28;20209;-64
2022/01/07 02:45:32;;;;;;;16.87;10.73;;;;;;;4.41;66.51;100877.56;5040721;28;20190;-64
2022/01/07 02:47:59;;;;;;;18.50;11.90;;;;;;;4.35;67.71;100864.44;5058547;28;20170;-64
2022/01/07 02:50:34;;;;;;;20.70;11.50;;;;;;;4.57;66.21;100868.66;5058038;28;20196;-65
2022/01/07 02:53:00;;;;;;;16.80;10.50;;;;;;;4.36;66.83;100849.00;5057125;28;20411;-64
2022/01/07 02:55:26;;;;;;;17.53;9.87;;;;;;;4.48;67.05;100855.41;5057139;28;20447;-65
2022/01/07 02:57:52;;;;;;;14.80;10.20;;;;;;;4.52;67.37;100846.97;5058156;28;20398;-65
2022/01/07 03:00:19;;;;;;;19.10;10.87;;;;;;;4.71;66.97;100851.97;5058173;28;20443;-65
2022/01/07 03:02:45;;;;;;;12.90;9.93;;;;;;;4.75;66.70;100849.47;5061401;28;20426;-65
2022/01/07 03:05:11;;;;;;;16.50;9.77;;;;;;;4.60;67.37;100839.50;5061445;28;20662;-65
2022/01/07 03:07:38;;;;;;;16.37;9.67;;;;;;;4.17;66.73;100831.09;5062262;28;20407;-65
2022/01/07 03:10:05;;;;;;;15.20;9.07;;;;;;;4.59;67.98;100838.63;5061319;28;20707;-65
2022/01/07 03:12:31;;;;;;;17.20;9.60;;;;;;;4.41;66.52;100830.22;5061556;28;20455;-65
2022/01/07 03:14:56;;;;;;;16.50;9.40;;;;;;;4.04;66.95;100837.47;5062252;28;20477;-65
2022/01/07 03:17:21;;;;;;;16.13;9.47;;;;;;;4.46;66.60;100833.84;5061739;28;20231;-65
2022/01/07 03:19:47;;;;;;;13.53;8.60;;;;;;;4.97;65.41;100820.97;5061877;28;20174;-65
2022/01/07 03:22:12;;;;;;;14.00;8.87;;;;;;;4.48;66.40;100817.59;5062071;28;20176;-65
2022/01/07 03:24:38;;;;;;;14.30;8.83;;;;;;;4.78;65.57;100821.19;5065834;28;20178;-66
2022/01/07 03:27:04;;;;;;;13.10;9.27;;;;;;;4.05;66.17;100818.59;5072224;28;20252;-64
2022/01/07 03:29:29;;;;;;;15.40;9.07;;;;;;;4.38;66.43;100803.47;5070913;28;20408;-64
2022/01/07 03:31:55;;;;;;;16.53;8.37;;;;;;;4.43;65.27;100797.59;5063051;28;20908;-64
2022/01/07 03:34:20;;;;;;;11.63;8.33;;;;;;;4.84;64.16;100800.72;5062169;28;20169;-64
2022/01/07 03:36:46;;;;;;;11.50;7.00;;;;;;;4.00;65.51;100800.34;5062311;28;20427;-64
2022/01/07 03:39:11;;;;;;;16.00;8.53;;;;;;;4.84;64.98;100793.88;5061641;28;20174;-64
2022/01/07 03:41:36;;;;;;;14.00;7.20;;;;;;;4.70;64.76;100793.38;5060469;28;20174;-64
2022/01/07 03:44:02;;;;;;;12.00;8.13;;;;;;;4.72;63.82;100796.00;5060966;28;20482;-64
2022/01/07 03:46:27;;;;;;;12.97;7.83;;;;;;;5.01;65.32;100780.63;5061288;28;20500;-63
2022/01/07 03:48:52;;;;;;;19.17;7.90;;;;;;;4.61;64.24;100790.47;5061103;28;20170;-64
2022/01/07 03:51:18;;;;;;;12.80;8.07;;;;;;;4.46;64.42;100782.22;5061750;28;20212;-64
2022/01/07 03:53:43;;;;;;;14.73;7.87;;;;;;;4.32;64.90;100792.94;5060769;28;20228;-63
2022/01/07 03:56:11;;;;;;;14.80;7.27;;;;;;;4.64;64.12;100781.97;5060152;28;20173;-64
2022/01/07 03:58:37;;;;;;;9.37;7.17;;;;;;;4.11;65.04;100789.56;5061730;28;20177;-63
2022/01/07 04:01:02;;;;;;;12.47;7.60;;;;;;;4.12;64.32;100778.44;5062769;28;20412;-63
2022/01/07 04:03:29;;;;;;;11.93;7.80;;;;;;;4.87;64.13;100782.75;5061352;28;20196;-63
2022/01/07 04:05:54;;;;;;;14.23;7.90;;;;;;;5.03;62.27;100779.88;5061861;28;20185;-65
2022/01/07 04:08:19;;;;;;;9.87;7.07;;;;;;;5.12;61.78;100778.41;5060880;28;20806;-65
2022/01/07 04:10:45;;;;;;;10.97;7.57;;;;;;;5.09;63.09;100778.28;5060533;28;20178;-64
2022/01/07 04:13:10;;;;;;;14.17;7.67;;;;;;;4.43;64.43;100782.13;5060420;28;20174;-64
2022/01/07 04:15:35;;;;;;;13.03;7.30;;;;;;;4.58;63.93;100776.59;5059928;28;20173;-64
2022/01/07 04:18:01;;;;;;;13.87;7.60;;;;;;;4.73;63.01;100764.22;5060611;28;20177;-64
2022/01/07 04:20:30;;;;;;;12.70;7.03;;;;;;;3.84;66.13;100769.66;5061345;28;20252;-65
2022/01/07 04:22:56;;;;;;;14.70;7.40;;;;;;;4.00;65.97;100771.97;5060465;28;20215;-65
2022/01/07 04:25:22;;;;;;;11.17;8.00;;;;;;;4.65;64.55;100763.94;5060491;28;20553;-67
2022/01/07 04:27:52;;;;;;;14.90;8.53;;;;;;;4.28;66.45;100767.84;5059924;28;20193;-63
2022/01/07 04:30:19;;;;;;;13.90;8.60;;;;;;;4.36;67.28;100771.56;5059562;28;20415;-63
2022/01/07 04:32:45;;;;;;;16.67;8.30;;;;;;;4.47;67.28;100761.63;5060108;28;20517;-64
2022/01/07 04:35:12;;;;;;;14.90;8.90;;;;;;;4.51;67.93;100755.72;5060038;28;20776;-64
2022/01/07 04:37:37;;;;;;;9.90;8.10;;;;;;;4.16;68.62;100757.06;5059311;28;20197;-64
2022/01/07 04:40:04;;;;;;;15.70;9.30;;;;;;;4.07;69.94;100761.91;5060422;28;20806;-64
2022/01/07 04:42:30;;;;;;;14.20;8.17;;;;;;;4.44;69.92;100747.72;5059651;28;20181;-64
2022/01/07 04:44:55;;;;;;;14.23;9.80;;;;;;;3.69;72.47;100757.06;5060080;28;20800;-64
2022/01/07 04:47:20;;;;;;;15.07;10.00;;;;;;;4.29;70.65;100746.38;5059879;28;20181;-65
2022/01/07 04:49:46;;;;;;;13.13;8.83;;;;;;;4.36;71.81;100742.31;5060488;28;20174;-65
2022/01/07 04:52:11;;;;;;;11.47;8.50;;;;;;;3.57;73.23;100744.59;5059741;28;20301;-65
2022/01/07 04:54:36;;;;;;;17.97;10.63;;;;;;;3.51;73.96;100749.53;5059718;28;20231;-65
2022/01/07 04:57:01;;;;;;;12.47;8.73;;;;;;;3.36;75.25;100742.09;5061107;28;20169;-65
2022/01/07 04:59:27;;;;;;;14.20;9.50;;;;;;;3.74;73.80;100726.31;5059828;28;20181;-65
2022/01/07 05:01:54;;;;;;;12.67;9.20;;;;;;;3.90;74.02;100718.31;5059609;28;20262;-64
2022/01/07 05:04:19;;;;;;;13.53;8.90;;;;;;;3.81;74.30;100721.44;5060110;28;20174;-63
2022/01/07 05:06:45;;;;;;;12.63;8.63;;;;;;;3.88;73.61;100714.78;5059640;28;20508;-64
2022/01/07 05:09:16;;;;;;;13.40;9.60;;;;;;;4.03;73.98;100709.31;5059608;28;20170;-64
2022/01/07 05:11:48;;;;;;;12.30;9.50;;;;;;;3.83;74.50;100700.84;5059885;28;20205;-64
2022/01/07 05:14:14;;;;;;;12.50;9.63;;;;;;;3.70;74.89;100697.81;5042033;28;20420;-64
2022/01/07 05:16:40;;;;;;;14.90;10.60;;;;;;;3.64;74.96;100695.03;5059618;28;20413;-64
2022/01/07 05:19:05;;;;;;;15.37;9.40;;;;;;;3.78;74.15;100686.94;5060064;28;20411;-64
2022/01/07 05:21:31;;;;;;;19.90;10.73;;;;;;;3.74;74.05;100696.25;5059454;28;20227;-64
2022/01/07 05:23:56;;;;;;;13.93;9.17;;;;;;;3.71;75.71;100689.28;5058417;28;20165;-64
2022/01/07 05:26:22;;;;;;;14.43;9.90;;;;;;;3.87;74.91;100689.84;5059821;28;20217;-64
2022/01/07 05:28:47;;;;;;;12.33;10.00;;;;;;;3.45;75.43;100688.31;5059385;28;20197;-63
2022/01/07 05:31:13;;;;;;;15.93;9.73;;;;;;;3.88;75.16;100671.84;5059102;28;20225;-64
2022/01/07 05:33:38;;;;;;;16.93;9.87;;;;;;;4.19;74.63;100678.09;5059279;28;20464;-64
2022/01/07 05:36:03;;;;;;;16.83;10.70;;;;;;;3.70;73.81;100672.03;5058893;28;20169;-64
2022/01/07 05:38:29;;;;;;;18.03;10.73;;;;;;;3.59;75.25;100675.06;5058174;28;20197;-65
2022/01/07 05:40:54;;;;;;;17.10;10.60;;;;;;;3.96;74.46;100677.25;5059430;28;20173;-64
2022/01/07 05:43:19;;;;;;;16.93;10.80;;;;;;;3.48;75.43;100672.09;5058726;28;20170;-63
2022/01/07 05:45:45;;;;;;;14.63;10.17;;;;;;;3.48;75.56;100669.53;5058951;28;20173;-65
2022/01/07 05:48:14;;;;;;;18.07;11.17;;;;;;;3.81;75.36;100656.09;5058484;28;20177;-63
2022/01/07 05:50:40;;;;;;;16.10;10.60;;;;;;;3.60;75.33;100653.59;5058711;28;20928;-64
2022/01/07 05:53:05;;;;;;;18.10;10.50;;;;;;;3.94;75.40;100652.22;5058565;28;20534;-64
2022/01/07 05:55:30;;;;;;;12.47;9.90;;;;;;;3.70;75.01;100648.84;5058333;28;20252;-63
2022/01/07 05:57:56;;;;;;;17.00;10.30;;;;;;;4.04;74.32;100639.72;5058813;28;20184;-64
2022/01/07 06:00:21;;;;;;;12.60;10.40;;;;;;;3.92;74.90;100639.28;5058476;28;20188;-65
2022/01/07 06:02:47;;;;;;;19.63;10.50;;;;;;;3.76;74.27;100637.00;5058919;28;20169;-64
2022/01/07 06:05:12;;;;;;;14.00;10.20;;;;;;;4.15;74.04;100637.50;5058470;28;20188;-64
2022/01/07 06:07:38;;;;;;;16.87;11.50;;;;;;;3.77;75.54;100633.59;5058409;28;20195;-63
2022/01/07 06:10:04;;;;;;;14.07;9.50;;;;;;;3.66;76.33;100634.09;5058680;28;20166;-65
2022/01/07 06:12:30;;;;;;;14.23;10.37;;;;;;;3.51;76.56;100625.81;5058018;28;20631;-65
2022/01/07 06:14:55;;;;;;;15.77;10.17;;;;;;;3.31;77.86;100623.34;5058243;28;20420;-65
2022/01/07 06:17:20;;;;;;;15.63;11.10;;;;;;;3.85;75.18;100614.97;5058896;28;20169;-65
2022/01/07 06:19:46;;;;;;;12.47;10.60;;;;;;;3.79;75.68;100621.63;5058380;28;20169;-65
2022/01/07 06:22:11;;;;;;;13.20;9.37;;;;;;;3.85;75.94;100606.38;5058237;28;20173;-65
2022/01/07 06:24:36;;;;;;;12.23;10.50;;;;;;;3.87;75.01;100599.59;5058909;28;20180;-64
2022/01/07 06:27:02;;;;;;;12.40;9.70;;;;;;;3.62;75.91;100597.84;5058007;28;20185;-64
2022/01/07 06:29:27;;;;;;;13.80;10.47;;;;;;;4.06;75.33;100598.50;5058218;28;20181;-64
2022/01/07 06:31:52;;;;;;;12.97;9.43;;;;;;;3.86;75.23;100601.28;5058683;28;20579;-64
2022/01/07 06:34:20;;;;;;;12.80;9.97;;;;;;;3.92;75.10;100617.78;5058026;28;20215;-64
2022/01/07 06:36:48;;;;;;;14.60;10.70;;;;;;;3.99;74.48;100612.00;5057373;28;20511;-64
2022/01/07 06:39:15;;;;;;;11.70;9.43;;;;;;;3.84;75.24;100609.78;5058768;28;20401;-64
2022/01/07 06:41:40;;;;;;;12.37;9.83;;;;;;;3.48;77.74;100612.81;5057944;28;20412;-64
2022/01/07 06:44:05;;;;;;;14.60;9.83;;;;;;;3.73;76.83;100600.81;5057867;28;20385;-64
2022/01/07 06:46:31;;;;;;;12.67;9.30;;;;;;;3.37;75.57;100594.41;5058264;28;20243;-66
2022/01/07 06:48:56;;;;;;;13.23;10.23;;;;;;;3.65;76.43;100597.94;5057911;28;20222;-64
2022/01/07 06:51:21;;;;;;;13.60;10.40;;;;;;;3.94;75.15;100595.50;5057918;28;20517;-64
2022/01/07 06:53:47;;;;;;;10.33;8.90;;;;;;;4.22;75.16;100585.28;5057693;28;20688;-63
2022/01/07 06:56:12;;;;;;;11.47;10.27;;;;;;;3.79;74.80;100581.25;5057964;28;20173;-64
2022/01/07 06:58:37;;;;;;;12.77;10.10;;;;;;;3.82;76.41;100594.25;5058017;28;20257;-64
2022/01/07 07:01:03;;;;;;;11.90;9.80;;;;;;;3.91;75.43;100585.06;5057799;28;20535;-65
2022/01/07 07:03:29;;;;;;;11.73;9.37;;;;;;;3.75;76.88;100583.66;5058093;28;20217;-64
2022/01/07 07:05:54;;;;;;;10.83;9.50;;;;;;;3.86;76.00;100582.34;5058333;28;20805;-64
2022/01/07 07:08:19;;;;;;;12.90;9.07;;;;;;;3.87;74.88;100573.81;5057611;28;20177;-65
2022/01/07 07:10:44;;;;;;;13.00;9.53;;;;;;;4.02;76.44;100576.03;5057778;28;20177;-64
2022/01/07 07:13:10;;;;;;;10.63;9.53;;;;;;;3.81;75.25;100576.16;5057956;28;20170;-64
2022/01/07 07:15:35;;;;;;;12.20;10.40;;;;;;;3.57;77.72;100581.31;5056916;28;20562;-64
2022/01/07 07:18:00;;;;;;;12.87;9.50;;;;;;;3.84;76.70;100582.31;5057550;28;20173;-64
2022/01/07 07:20:26;;;;;;;16.17;11.07;;;;;;;3.44;77.08;100568.00;5058703;28;20162;-64
2022/01/07 07:22:51;;;;;;;11.80;10.60;;;;;;;3.93;75.81;100574.00;5057572;28;20197;-64
2022/01/07 07:25:16;;;;;;;13.13;9.80;;;;;;;2.92;78.99;100572.09;5057704;28;20174;-66
2022/01/07 07:27:42;;;;;;;11.93;10.63;;;;;;;3.56;77.20;100572.72;5058070;28;20447;-66
2022/01/07 07:30:09;;;;;;;14.63;11.10;;;;;;;3.83;76.46;100566.75;5058356;28;20177;-70
2022/01/07 07:32:35;;;;;;;16.80;11.00;;;;;;;4.05;75.73;100576.13;5058046;28;20202;-66
2022/01/07 07:36:26;;;;;;;13.37;10.80;;;;;;;4.09;75.33;100575.38;5060621;28;20658;-67
2022/01/07 07:37:47;;;;;;;13.97;11.10;;;;;;;3.63;76.76;100573.81;5060035;28;20821;-64
2022/01/07 07:40:12;;;;;;;15.23;10.67;;;;;;;3.99;75.55;100566.47;5060527;28;20416;-64
2022/01/07 07:42:41;;;;;;;14.03;10.63;;;;;;;3.78;76.35;100576.94;5058570;28;20474;-64
2022/01/07 07:45:07;;;;;;;11.30;9.80;;;;;;;3.97;75.33;100569.81;5057888;28;20227;-64
2022/01/07 07:47:34;;;;;;;13.30;11.00;;;;;;;4.16;74.91;100576.47;5060078;28;20424;-65
2022/01/07 07:49:59;;;;;;;13.57;10.50;;;;;;;4.24;74.43;100577.59;5060712;28;20404;-65
2022/01/07 07:52:24;;;;;;;16.37;11.53;;;;;;;4.35;74.50;100573.66;5060930;28;20746;-64
2022/01/07 07:54:49;;;;;;;13.87;10.97;;;;;;;3.93;74.92;100576.56;5060761;28;20630;-64
2022/01/07 07:57:15;;;;;;;14.30;11.30;;;;;;;4.10;75.06;100571.09;5061217;28;20176;-65
2022/01/07 07:59:40;;;;;;;17.33;12.00;;;;;;;4.44;74.47;100572.19;5061170;28;20223;-65
2022/01/07 08:02:09;;;;;;;16.13;11.37;;;;;;;4.37;73.83;100565.94;5060227;28;20169;-64
2022/01/07 08:04:34;;;;;;;20.53;12.50;;;;;;;4.24;74.52;100562.13;5060227;28;20202;-65
2022/01/07 08:06:59;;;;;;;13.20;11.87;;;;;;;4.33;74.13;100554.66;5060649;28;20830;-64
2022/01/07 08:09:26;;;;;;;11.80;10.30;;;;;;;4.20;75.33;100548.22;5061112;28;20169;-65
2022/01/07 08:11:53;;;;;;;13.77;11.53;;;;;;;4.22;74.49;100564.66;5060745;28;20562;-65
2022/01/07 08:17:05;;;;;;;14.70;12.77;;;;;;;3.81;76.32;100550.38;5060540;28;20419;-65
2022/01/07 08:19:30;;;;;;;12.43;10.90;;;;;;;4.36;74.77;100559.06;5060576;28;20805;-65
2022/01/07 08:21:56;;;;;;;14.03;11.67;;;;;;;4.46;73.68;100555.06;5060460;28;20394;-65
2022/01/07 08:24:21;;;;;;;15.63;12.97;;;;;;;4.28;74.96;100547.63;5060260;28;20201;-65
2022/01/07 08:26:47;;;;;;;18.27;13.20;;;;;;;4.25;76.73;100553.56;5060226;28;20236;-65
2022/01/07 08:29:13;;;;;;;13.07;11.67;;;;;;;4.14;75.27;100552.31;5060571;28;20184;-65
2022/01/07 08:36:48;;;;;;;12.90;11.60;;;;;;;4.09;76.48;100559.03;5060212;28;20223;-67
2022/01/07 08:39:13;;;;;;;9.53;7.93;;;;;;;11.57;67.44;100517.69;5060217;28;20419;-60
2022/01/07 08:41:39;;;;;;;8.90;8.00;;;;;;;12.11;59.24;100515.13;5059900;28;20463;-62
2022/01/07 08:44:05;;;;;;;8.67;7.77;;;;;;;7.30;61.42;100533.81;5059226;28;20170;-62
2022/01/07 08:46:31;;;;;;;9.70;8.80;;;;;;;8.45;62.88;100533.22;5060654;28;20182;-58
2022/01/07 08:48:57;;;;;;;9.93;8.93;;;;;;;7.01;61.51;100533.22;5064155;28;20439;-65
2022/01/07 08:51:22;;;;;;;9.53;7.97;;;;;;;4.85;69.35;100544.19;5077895;28;20831;-65
2022/01/07 08:53:48;;;;;;;10.23;9.07;;;;;;;4.21;73.34;100552.56;5059104;28;20648;-65
2022/01/07 08:56:13;;;;;;;11.53;9.90;;;;;;;3.64;75.32;100554.94;5067081;28;20177;-65
2022/01/07 08:58:38;;;;;;;11.93;10.27;;;;;;;3.85;76.40;100550.50;5078732;28;20165;-66
2022/01/07 09:01:04;;;;;;;11.00;9.90;;;;;;;3.94;76.51;100555.13;5079645;28;20203;-66
2022/01/07 09:03:29;;;;;;;12.33;10.37;;;;;;;4.15;75.76;100548.91;5079687;28;20173;-66
2022/01/07 09:05:55;;;;;;;13.30;11.33;;;;;;;3.99;76.42;100542.38;5063207;28;20208;-67
2022/01/07 09:08:21;;;;;;;13.87;11.20;;;;;;;4.43;74.89;100544.66;5059662;28;20177;-66
2022/01/07 09:10:48;;;;;;;13.97;10.47;;;;;;;4.37;74.98;100543.63;5059745;28;20169;-66
2022/01/07 09:13:13;;;;;;;14.67;10.90;;;;;;;3.86;76.55;100548.81;5060112;28;20681;-66
2022/01/07 09:15:38;;;;;;;12.10;10.40;;;;;;;3.88;76.85;100539.44;5059375;28;20424;-65
2022/01/07 09:18:10;;;;;;;13.30;11.87;;;;;;;3.92;76.75;100536.13;5059759;28;20404;-64
2022/01/07 09:20:37;;;;;;;14.20;11.30;;;;;;;3.44;78.36;100555.13;5059955;28;20168;-66
2022/01/07 09:23:03;;;;;;;16.47;12.77;;;;;;;3.82;78.20;100544.41;5059743;28;20444;-66
2022/01/07 09:25:28;;;;;;;12.50;10.97;;;;;;;3.43;78.16;100534.47;5059710;28;20426;-64
2022/01/07 09:27:53;;;;;;;15.67;12.83;;;;;;;3.79;77.47;100539.13;5059628;28;20439;-65
2022/01/07 09:30:19;;;;;;;13.70;12.30;;;;;;;3.32;78.49;100537.53;5058449;28;20189;-66
2022/01/07 09:32:44;;;;;;;13.20;11.77;;;;;;;3.86;77.54;100541.97;5059031;28;20205;-65
2022/01/07 09:35:11;;;;;;;14.07;12.03;;;;;;;3.93;76.64;100532.72;5059562;28;20205;-64
2022/01/07 09:37:36;;;;;;;15.27;12.00;;;;;;;3.78;77.33;100533.09;5059063;28;20193;-64
2022/01/07 09:40:03;;;;;;;13.60;12.20;;;;;;;4.10;76.79;100534.97;5059081;28;20810;-65
2022/01/07 09:42:28;;;;;;;14.80;11.90;;;;;;;4.25;76.03;100529.44;5059502;28;20166;-64
2022/01/07 09:44:53;;;;;;;14.07;12.67;;;;;;;4.11;76.69;100536.75;5059084;28;20451;-65
2022/01/07 09:47:19;;;;;;;13.67;12.00;;;;;;;3.89;76.80;100541.19;5058921;28;20185;-64
2022/01/07 09:49:44;;;;;;;12.60;11.30;;;;;;;3.64;78.47;100530.06;5059231;28;20165;-65
2022/01/07 09:52:10;;;;;;;14.37;12.80;;;;;;;4.19;76.15;100530.13;5058753;28;20209;-65
2022/01/07 09:54:37;;;;;;;13.97;12.57;;;;;;;4.16;76.58;100530.03;5058468;28;20283;-65
2022/01/07 09:57:07;;;;;;;14.40;12.33;;;;;;;3.83;77.97;100528.06;5074665;28;20173;-65
2022/01/07 09:59:37;;;;;;;14.53;12.10;;;;;;;4.26;76.65;100537.22;5078710;28;20426;-67
2022/01/07 10:02:07;;;;;;;14.70;13.20;;;;;;;4.16;76.17;100536.06;5078665;28;20418;-66
2022/01/07 10:04:35;;;;;;;14.53;12.30;;;;;;;4.29;75.66;100526.13;5078478;28;20498;-67
2022/01/07 10:07:19;;;;;;;13.53;12.13;;;;;;;3.93;77.45;100530.16;5078396;28;20419;-66
2022/01/07 10:10:04;;;;;;;14.90;13.27;;;;;;;3.75;77.96;100532.09;5078341;28;20673;-65
2022/01/07 10:12:50;;;;;;;17.40;13.80;;;;;;;3.80;78.68;100518.56;5077754;28;20510;-65
2022/01/07 10:15:18;;;;;;;17.63;13.73;;;;;;;4.40;76.84;100517.03;5078241;28;20510;-65
2022/01/07 10:18:01;;;;;;;15.00;12.73;;;;;;;4.33;76.50;100515.97;5078483;28;20419;-64
2022/01/07 10:20:29;;;;;;;16.73;14.93;;;;;;;4.18;76.26;100528.34;5077618;28;20419;-64
2022/01/07 10:23:00;;;;;;;15.57;13.97;;;;;;;3.89;77.62;100517.97;5078422;28;20426;-68
2022/01/07 10:25:35;;;;;;;14.40;12.90;;;;;;;4.09;77.07;100517.78;5077706;28;20414;-67
2022/01/07 10:28:09;;;;;;;15.30;12.83;;;;;;;4.10;76.90;100522.06;5078168;28;20425;-65
2022/01/07 10:30:44;;;;;;;15.40;13.73;;;;;;;3.93;77.73;100504.34;5077707;28;20411;-67
2022/01/07 10:33:18;;;;;;;20.73;13.90;;;;;;;3.97;77.42;100508.78;5078065;28;20415;-64
2022/01/07 10:35:44;;;;;;;15.90;13.87;;;;;;;4.08;77.71;100497.94;5078384;28;20411;-63
2022/01/07 10:38:15;;;;;;;16.80;14.50;;;;;;;4.09;77.35;100495.41;5078323;28;20411;-65
2022/01/07 10:40:41;;;;;;;14.67;13.17;;;;;;;3.87;79.11;100501.59;5079171;28;20422;-64
2022/01/07 10:43:16;;;;;;;16.70;14.10;;;;;;;3.65;78.99;100499.97;5078813;28;20715;-64
2022/01/07 10:45:51;;;;;;;16.57;13.23;;;;;;;3.73;79.14;100490.81;5079974;28;20203;-66
2022/01/07 10:48:19;;;;;;;15.00;13.40;;;;;;;3.87;79.00;100491.28;5078116;28;20465;-63
2022/01/07 10:50:46;;;;;;;15.67;13.97;;;;;;;4.00;78.54;100488.25;5077909;28;20433;-62
2022/01/07 10:53:29;;;;;;;16.40;14.20;;;;;;;4.30;77.65;100479.75;5077670;28;20752;-62
2022/01/07 10:56:00;;;;;;;15.73;13.43;;;;;;;4.32;76.77;100478.06;5070957;28;20432;-64
2022/01/07 10:58:26;;;;;;;18.50;14.10;;;;;;;4.31;77.51;100478.91;5057250;28;20423;-63
2022/01/07 11:00:52;;;;;;;15.97;13.30;;;;;;;3.87;79.10;100484.41;5057847;28;20431;-63
2022/01/07 11:03:18;;;;;;;17.53;15.30;;;;;;;4.26;77.76;100477.88;5057752;28;20412;-65
2022/01/07 11:05:43;;;;;;;17.73;15.70;;;;;;;4.49;77.95;100482.88;5058456;28;20177;-65
2022/01/07 11:08:09;;;;;;;17.30;14.57;;;;;;;4.53;77.86;100476.97;5057994;28;20482;-65
2022/01/07 11:10:36;;;;;;;17.13;14.57;;;;;;;4.69;76.90;100483.47;5058133;28;20192;-65
2022/01/07 11:13:02;;;;;;;17.03;15.23;;;;;;;4.83;76.42;100476.09;5058002;28;20243;-65
2022/01/07 11:15:27;;;;;;;18.30;15.93;;;;;;;4.45;77.97;100484.50;5057633;28;20795;-67
2022/01/07 11:17:53;;;;;;;18.73;16.73;;;;;;;4.65;77.43;100484.19;5057702;28;20427;-64
2022/01/07 11:20:24;;;;;;;21.97;17.93;;;;;;;4.50;76.98;100476.88;5058268;28;20178;-64
2022/01/07 11:22:49;;;;;;;17.70;15.80;;;;;;;4.93;76.47;100470.38;5059474;28;20173;-65